Time;durP1;ratioP1;P1;durP2;ratioP2;P2;SDS_P1;SDS_P2;PMS_P1;PMS_P2;Temp;Humidity;BMP_temperature;BMP_pressure;BME280_temperature;BME280_humidity;BME280_pressure;Samples;Min_cycle;Max_cycle;Signal;HPM_P1;HPM_P2
2022/08/16 00:00:36;;;;;;;6.13;3.33;;;16.60;99.90;;;;;;5034137;28;20028;-71
2022/08/16 00:03:03;;;;;;;6.25;3.17;;;16.60;99.90;;;;;;5035507;28;20033;-71
2022/08/16 00:05:32;;;;;;;5.40;2.88;;;16.60;99.90;;;;;;5034866;28;20556;-71
2022/08/16 00:07:58;;;;;;;5.18;2.90;;;16.60;99.90;;;;;;5034107;28;20060;-71
2022/08/16 00:10:26;;;;;;;6.28;3.17;;;16.60;99.90;;;;;;5034158;28;20494;-71
2022/08/16 00:12:52;;;;;;;4.25;2.83;;;16.70;99.90;;;;;;5034443;28;20116;-71
2022/08/16 00:15:24;;;;;;;4.68;2.97;;;16.70;99.90;;;;;;5034361;28;20123;-71
2022/08/16 00:17:50;;;;;;;6.00;3.13;;;16.70;99.90;;;;;;5034224;28;20029;-71
2022/08/16 00:20:17;;;;;;;5.28;3.10;;;16.60;99.90;;;;;;5035090;28;20022;-71
2022/08/16 00:22:43;;;;;;;6.00;3.10;;;16.60;99.90;;;;;;5034202;28;20030;-71
2022/08/16 00:25:14;;;;;;;3.97;2.92;;;16.60;99.90;;;;;;5034198;28;20029;-71
2022/08/16 00:27:40;;;;;;;3.85;2.80;;;16.60;99.90;;;;;;5035452;28;20541;-71
2022/08/16 00:30:08;;;;;;;4.13;2.58;;;16.60;99.90;;;;;;5035298;28;20135;-71
2022/08/16 00:32:34;;;;;;;6.32;2.97;;;16.60;99.90;;;;;;5033977;28;20030;-71
2022/08/16 00:35:00;;;;;;;5.22;2.80;;;16.60;99.90;;;;;;5035221;28;20065;-71
2022/08/16 00:37:25;;;;;;;5.22;2.78;;;16.60;99.90;;;;;;5035426;28;20052;-71
2022/08/16 00:39:53;;;;;;;5.93;3.53;;;16.60;99.90;;;;;;5035100;28;20481;-71
2022/08/16 00:42:19;;;;;;;4.45;2.85;;;16.60;99.90;;;;;;5033848;28;20513;-71
2022/08/16 00:44:52;;;;;;;5.07;3.20;;;16.50;99.90;;;;;;5035032;28;20044;-71
2022/08/16 00:47:20;;;;;;;5.85;3.50;;;16.50;99.90;;;;;;5033829;28;20116;-71
2022/08/16 00:49:45;;;;;;;4.82;3.30;;;16.40;99.90;;;;;;5035158;28;20029;-71
2022/08/16 00:52:11;;;;;;;5.18;3.15;;;16.40;99.90;;;;;;5035219;28;20025;-71
2022/08/16 00:54:37;;;;;;;4.90;2.95;;;16.30;99.90;;;;;;5034182;28;20032;-72
2022/08/16 00:57:03;;;;;;;4.82;2.70;;;16.30;99.90;;;;;;5034654;28;20041;-72
2022/08/16 00:59:32;;;;;;;5.65;3.15;;;16.30;99.90;;;;;;5033508;28;20027;-72
2022/08/16 01:01:59;;;;;;;4.65;3.20;;;16.30;99.90;;;;;;5033582;28;20534;-71
2022/08/16 01:04:26;;;;;;;6.55;3.42;;;16.30;99.90;;;;;;5033324;28;20490;-71
2022/08/16 01:06:52;;;;;;;3.92;2.95;;;16.30;99.90;;;;;;5033198;28;20021;-72
2022/08/16 01:09:18;;;;;;;4.45;3.30;;;16.40;99.90;;;;;;5033751;28;20079;-71
2022/08/16 01:11:44;;;;;;;4.30;3.30;;;16.40;99.90;;;;;;5034063;28;20108;-71
2022/08/16 01:14:20;;;;;;;5.35;3.30;;;16.40;99.90;;;;;;5033034;28;20114;-72
2022/08/16 01:16:47;;;;;;;4.88;3.35;;;16.40;99.90;;;;;;5033008;28;20062;-72
2022/08/16 01:19:21;;;;;;;4.55;2.70;;;16.40;99.90;;;;;;5032748;28;20033;-71
2022/08/16 01:22:02;;;;;;;4.00;2.85;;;16.40;99.90;;;;;;5034253;28;20104;-72
2022/08/16 01:24:44;;;;;;;5.95;2.72;;;16.40;99.90;;;;;;5034632;28;20044;-72
2022/08/16 01:27:24;;;;;;;3.70;2.30;;;16.30;99.90;;;;;;5033312;28;20033;-71
2022/08/16 01:30:07;;;;;;;3.70;2.55;;;16.20;99.90;;;;;;5034503;28;20034;-71
2022/08/16 01:32:37;;;;;;;7.38;3.10;;;16.10;99.90;;;;;;5032960;28;20021;-72
2022/08/16 01:35:13;;;;;;;3.65;2.50;;;16.00;99.90;;;;;;5032884;28;20152;-71
2022/08/16 01:37:51;;;;;;;5.90;3.05;;;15.90;99.90;;;;;;5032810;28;20079;-72
2022/08/16 01:40:19;;;;;;;4.05;2.75;;;15.70;99.90;;;;;;5033027;28;20029;-72
2022/08/16 01:42:47;;;;;;;3.70;2.80;;;15.60;99.90;;;;;;5034278;28;20042;-72
2022/08/16 01:45:12;;;;;;;6.00;2.75;;;15.60;99.90;;;;;;5033924;28;20414;-72
2022/08/16 01:47:40;;;;;;;10.05;3.40;;;15.70;99.90;;;;;;5034189;28;20021;-72
2022/08/16 01:50:07;;;;;;;4.80;3.13;;;15.70;99.90;;;;;;5034109;28;20029;-72
2022/08/16 01:52:34;;;;;;;6.00;3.55;;;15.70;99.90;;;;;;5033824;28;20433;-73
2022/08/16 01:55:01;;;;;;;4.55;3.30;;;15.70;99.90;;;;;;5032416;28;20069;-72
2022/08/16 01:57:28;;;;;;;5.82;3.63;;;15.80;99.90;;;;;;5033606;28;20041;-72
2022/08/16 01:59:54;;;;;;;4.50;3.10;;;15.70;99.90;;;;;;5033658;28;20053;-72
2022/08/16 02:02:23;;;;;;;6.70;3.05;;;15.80;99.90;;;;;;5032399;28;20030;-72
2022/08/16 02:04:49;;;;;;;6.93;3.35;;;15.80;99.90;;;;;;5033655;28;20396;-72
2022/08/16 02:07:17;;;;;;;6.55;4.30;;;15.80;99.90;;;;;;5032348;28;20021;-72
2022/08/16 02:09:43;;;;;;;7.90;5.50;;;15.70;99.90;;;;;;5033504;28;20021;-72
2022/08/16 02:12:09;;;;;;;6.50;5.22;;;15.60;99.90;;;;;;5033580;28;20025;-72
2022/08/16 02:14:36;;;;;;;5.80;4.80;;;15.50;99.90;;;;;;5031980;28;20062;-72
2022/08/16 02:17:06;;;;;;;4.80;3.42;;;15.40;99.90;;;;;;5033057;28;20029;-73
2022/08/16 02:19:36;;;;;;;5.25;3.42;;;15.40;99.90;;;;;;5032285;28;20025;-72
2022/08/16 02:22:04;;;;;;;4.40;3.15;;;15.30;99.90;;;;;;5033307;28;20179;-72
2022/08/16 02:24:29;;;;;;;6.28;3.42;;;15.40;99.90;;;;;;5033706;28;20029;-72
2022/08/16 02:26:55;;;;;;;5.05;3.83;;;15.40;99.90;;;;;;5032355;28;20026;-73
2022/08/16 02:29:21;;;;;;;4.55;3.45;;;15.40;99.90;;;;;;5032113;28;20111;-72
2022/08/16 02:31:49;;;;;;;4.65;3.30;;;15.40;99.90;;;;;;5033267;28;20031;-72
2022/08/16 02:34:17;;;;;;;6.18;3.30;;;15.40;99.90;;;;;;5032272;28;20036;-73
2022/08/16 02:36:43;;;;;;;6.38;3.53;;;15.50;99.90;;;;;;5031991;28;20037;-73
2022/08/16 02:39:11;;;;;;;6.25;3.38;;;15.60;99.90;;;;;;5031941;28;20025;-73
2022/08/16 02:41:38;;;;;;;7.15;3.85;;;15.70;99.90;;;;;;5033160;28;20021;-72
2022/08/16 02:44:05;;;;;;;4.40;3.22;;;15.70;99.90;;;;;;5031960;28;20025;-72
2022/08/16 02:46:32;;;;;;;3.85;3.00;;;15.70;99.90;;;;;;5033454;28;20026;-72
2022/08/16 02:48:58;;;;;;;3.90;2.90;;;15.70;99.90;;;;;;5031943;28;20033;-72
2022/08/16 02:51:26;;;;;;;6.53;3.83;;;15.70;99.90;;;;;;5031848;28;20037;-72
2022/08/16 02:53:53;;;;;;;5.00;3.40;;;15.80;99.90;;;;;;5031887;28;20029;-72
2022/08/16 02:56:19;;;;;;;5.10;3.40;;;15.80;99.90;;;;;;5031748;28;20056;-72
2022/08/16 02:58:48;;;;;;;4.93;3.63;;;15.80;99.90;;;;;;5031794;28;20060;-73
2022/08/16 03:01:16;;;;;;;4.97;3.38;;;15.70;99.90;;;;;;5031743;28;20026;-72
2022/08/16 03:03:42;;;;;;;6.10;3.25;;;15.70;99.90;;;;;;5032016;28;20026;-73
2022/08/16 03:06:08;;;;;;;5.22;3.70;;;15.60;99.90;;;;;;5031760;28;20055;-73
2022/08/16 03:08:34;;;;;;;4.78;3.33;;;15.60;99.90;;;;;;5032029;28;20026;-72
2022/08/16 03:11:00;;;;;;;4.60;3.58;;;15.60;99.90;;;;;;5031586;28;20036;-73
2022/08/16 03:13:26;;;;;;;4.90;3.67;;;15.60;99.90;;;;;;5031712;28;20076;-73
2022/08/16 03:15:52;;;;;;;5.10;2.80;;;15.70;99.90;;;;;;5032924;28;20034;-72
2022/08/16 03:18:18;;;;;;;4.90;2.88;;;15.70;99.90;;;;;;5032827;28;20029;-73
2022/08/16 03:20:43;;;;;;;4.68;3.10;;;15.70;99.90;;;;;;5032835;28;20087;-72
2022/08/16 03:23:10;;;;;;;5.38;3.42;;;15.70;99.90;;;;;;5033160;28;20432;-73
2022/08/16 03:25:36;;;;;;;5.93;3.40;;;15.70;99.90;;;;;;5032870;28;20022;-73
2022/08/16 03:28:04;;;;;;;5.40;3.65;;;15.70;99.90;;;;;;5034713;28;20067;-72
2022/08/16 03:30:32;;;;;;;4.55;3.50;;;15.80;99.90;;;;;;5035154;28;20036;-72
2022/08/16 03:32:58;;;;;;;4.63;3.53;;;15.70;99.90;;;;;;5035200;28;20026;-72
2022/08/16 03:35:27;;;;;;;6.95;3.90;;;15.70;99.90;;;;;;5035126;28;20551;-73
2022/08/16 03:37:58;;;;;;;4.00;3.20;;;15.70;99.90;;;;;;5034986;28;20026;-73
2022/08/16 03:40:24;;;;;;;5.50;3.78;;;15.60;99.90;;;;;;5035011;28;20074;-73
2022/08/16 03:42:50;;;;;;;5.75;3.45;;;15.70;99.90;;;;;;5036245;28;20108;-72
2022/08/16 03:45:16;;;;;;;4.35;3.45;;;15.70;99.90;;;;;;5035214;28;20033;-72
2022/08/16 03:47:44;;;;;;;4.90;3.58;;;15.70;99.90;;;;;;5034904;28;20525;-72
2022/08/16 03:50:10;;;;;;;6.65;3.22;;;15.60;99.90;;;;;;5035018;28;20470;-72
2022/08/16 03:52:35;;;;;;;6.32;3.80;;;15.60;99.90;;;;;;5036327;28;20035;-72
2022/08/16 03:55:03;;;;;;;5.20;3.67;;;15.50;99.90;;;;;;5036059;28;20105;-72
2022/08/16 03:57:29;;;;;;;5.03;3.20;;;15.50;99.90;;;;;;5034556;28;20388;-72
2022/08/16 03:59:55;;;;;;;4.38;3.50;;;15.40;99.90;;;;;;5034594;28;20401;-72
2022/08/16 04:02:21;;;;;;;5.05;3.13;;;15.40;99.90;;;;;;5035876;28;20083;-72
2022/08/16 04:04:48;;;;;;;4.57;3.50;;;15.40;99.90;;;;;;5035852;28;20030;-72
2022/08/16 04:07:14;;;;;;;5.47;3.50;;;15.40;99.90;;;;;;5034613;28;20462;-72
2022/08/16 04:09:41;;;;;;;6.07;3.85;;;15.40;99.90;;;;;;5035731;28;20044;-72
2022/08/16 04:12:09;;;;;;;4.90;3.50;;;15.30;99.90;;;;;;5034588;28;20558;-72
2022/08/16 04:14:35;;;;;;;5.95;3.92;;;15.30;99.90;;;;;;5033974;28;20022;-71
2022/08/16 04:17:02;;;;;;;5.38;4.20;;;15.20;99.90;;;;;;5034312;28;20021;-72
2022/08/16 04:19:28;;;;;;;7.05;4.57;;;15.10;99.90;;;;;;5035795;28;20041;-73
2022/08/16 04:21:54;;;;;;;5.75;4.38;;;15.10;99.90;;;;;;5034275;28;20021;-72
2022/08/16 04:24:20;;;;;;;5.47;4.18;;;14.90;99.90;;;;;;5034195;28;20036;-72
2022/08/16 04:26:46;;;;;;;7.95;4.05;;;14.90;99.90;;;;;;5035848;28;20367;-72
2022/08/16 04:29:12;;;;;;;6.25;3.92;;;14.80;99.90;;;;;;5034114;28;20024;-72
2022/08/16 04:31:38;;;;;;;5.07;4.07;;;14.70;99.90;;;;;;5034021;28;20107;-72
2022/08/16 04:34:04;;;;;;;4.57;3.53;;;14.70;99.90;;;;;;5035827;28;20474;-72
2022/08/16 04:36:29;;;;;;;6.90;4.50;;;14.80;99.90;;;;;;5033996;28;20021;-72
2022/08/16 04:38:55;;;;;;;7.47;4.20;;;14.80;99.90;;;;;;5034480;28;20033;-72
2022/08/16 04:41:21;;;;;;;7.18;4.13;;;14.90;99.90;;;;;;5033808;28;20080;-72
2022/08/16 04:43:48;;;;;;;5.13;4.00;;;14.90;99.90;;;;;;5033861;28;20017;-72
2022/08/16 04:46:15;;;;;;;6.30;4.47;;;15.00;99.90;;;;;;5033839;28;20435;-72
2022/08/16 04:48:41;;;;;;;6.32;4.38;;;15.00;99.90;;;;;;5035550;28;20079;-73
2022/08/16 04:51:09;;;;;;;5.20;3.90;;;15.10;99.90;;;;;;5033668;28;20394;-73
2022/08/16 04:53:35;;;;;;;4.55;3.78;;;15.20;99.90;;;;;;5033942;28;20116;-73
2022/08/16 04:56:01;;;;;;;6.07;4.00;;;15.20;99.90;;;;;;5033743;28;20067;-73
2022/08/16 04:58:27;;;;;;;5.18;4.05;;;15.20;99.90;;;;;;5033541;28;20029;-73
2022/08/16 05:00:53;;;;;;;4.90;3.63;;;15.30;99.90;;;;;;5033466;28;20025;-72
2022/08/16 05:03:19;;;;;;;5.07;3.72;;;15.30;99.90;;;;;;5033740;28;20033;-72
2022/08/16 05:05:46;;;;;;;5.53;3.75;;;15.40;99.90;;;;;;5034691;28;20462;-72
2022/08/16 05:08:12;;;;;;;5.60;3.80;;;15.40;99.90;;;;;;5034604;28;20033;-72
2022/08/16 05:10:38;;;;;;;4.97;3.47;;;15.40;99.90;;;;;;5034702;28;20029;-73
2022/08/16 05:13:06;;;;;;;5.05;3.30;;;15.40;99.90;;;;;;5032794;28;20042;-72
2022/08/16 05:15:33;;;;;;;5.80;3.30;;;15.50;99.90;;;;;;5033316;28;20555;-72
2022/08/16 05:17:58;;;;;;;4.45;3.25;;;15.50;99.90;;;;;;5033204;28;20108;-72
2022/08/16 05:20:25;;;;;;;4.95;2.60;;;15.50;99.90;;;;;;5033905;28;20126;-73
2022/08/16 05:22:51;;;;;;;4.95;2.90;;;15.50;99.90;;;;;;5033876;28;20029;-73
2022/08/16 05:25:17;;;;;;;4.15;3.03;;;15.50;99.90;;;;;;5032580;28;20018;-72
2022/08/16 05:27:43;;;;;;;4.68;2.83;;;15.50;99.90;;;;;;5032241;28;20453;-72
2022/08/16 05:30:14;;;;;;;4.57;2.70;;;15.60;99.90;;;;;;5032717;28;20494;-72
2022/08/16 05:32:40;;;;;;;3.77;2.57;;;15.60;99.90;;;;;;5032075;28;20117;-72
2022/08/16 05:35:09;;;;;;;5.40;3.50;;;15.60;99.90;;;;;;5033893;28;20021;-72
2022/08/16 05:37:36;;;;;;;6.10;3.10;;;15.60;99.90;;;;;;5033955;28;20025;-72
2022/08/16 05:40:03;;;;;;;6.22;2.88;;;15.60;99.90;;;;;;5032108;28;20029;-72
2022/08/16 05:42:29;;;;;;;3.75;2.90;;;15.60;99.90;;;;;;5031678;28;20018;-72
2022/08/16 05:44:55;;;;;;;5.13;2.75;;;15.60;99.90;;;;;;5034095;28;20079;-73
2022/08/16 05:47:21;;;;;;;5.18;2.78;;;15.60;99.90;;;;;;5031882;28;20071;-73
2022/08/16 05:49:46;;;;;;;3.88;2.67;;;15.70;99.90;;;;;;5032674;28;20037;-73
2022/08/16 05:52:12;;;;;;;7.03;3.22;;;15.70;99.90;;;;;;5032459;28;20466;-73
2022/08/16 05:54:38;;;;;;;5.20;2.83;;;15.80;99.90;;;;;;5033007;28;20499;-72
2022/08/16 05:57:04;;;;;;;5.43;3.33;;;15.80;99.90;;;;;;5031544;28;20152;-72
2022/08/16 05:59:30;;;;;;;4.18;3.20;;;15.90;99.90;;;;;;5031436;28;20120;-72
2022/08/16 06:01:56;;;;;;;5.82;4.30;;;15.80;99.90;;;;;;5033257;28;20096;-73
2022/08/16 06:04:23;;;;;;;6.60;4.50;;;15.90;99.90;;;;;;5032214;28;20029;-72
2022/08/16 06:06:49;;;;;;;7.70;5.45;;;16.00;99.90;;;;;;5040179;28;20052;-72
2022/08/16 06:09:16;;;;;;;8.07;4.68;;;16.00;99.90;;;;;;5037742;28;20067;-72
2022/08/16 06:11:42;;;;;;;6.68;4.32;;;16.10;99.90;;;;;;5033610;28;20143;-72
2022/08/16 06:14:08;;;;;;;7.68;5.22;;;16.10;99.90;;;;;;5032213;28;20481;-72
2022/08/16 06:16:34;;;;;;;10.02;5.97;;;16.20;99.90;;;;;;5036044;28;20032;-72
2022/08/16 06:19:00;;;;;;;6.82;4.82;;;16.30;99.90;;;;;;5030966;28;20107;-72
2022/08/16 06:21:25;;;;;;;7.60;5.07;;;16.30;99.90;;;;;;5025514;28;20025;-72
2022/08/16 06:23:51;;;;;;;6.47;4.65;;;16.50;99.90;;;;;;5031890;28;20441;-72
2022/08/16 06:26:17;;;;;;;11.38;5.78;;;16.50;99.90;;;;;;5032670;28;20026;-72
2022/08/16 06:28:44;;;;;;;6.43;4.45;;;16.60;99.90;;;;;;5030383;28;20056;-72
2022/08/16 06:31:11;;;;;;;7.13;4.93;;;16.70;99.90;;;;;;5030343;28;20029;-72
2022/08/16 06:33:37;;;;;;;6.40;4.75;;;16.80;99.90;;;;;;5031383;28;20033;-72
2022/08/16 06:36:03;;;;;;;8.45;4.93;;;16.80;99.90;;;;;;5031747;28;20029;-72
2022/08/16 06:38:29;;;;;;;9.40;5.03;;;16.90;99.90;;;;;;5032886;28;20026;-73
2022/08/16 06:40:55;;;;;;;5.35;4.20;;;16.90;99.90;;;;;;5031897;28;20041;-72
2022/08/16 06:43:20;;;;;;;9.00;4.00;;;17.00;99.90;;;;;;5048573;28;20032;-74
2022/08/16 06:45:47;;;;;;;4.97;3.50;;;17.00;99.90;;;;;;5033175;28;20375;-73
2022/08/16 06:48:13;;;;;;;3.63;2.65;;;17.00;99.90;;;;;;5033167;28;20033;-73
2022/08/16 06:50:39;;;;;;;3.13;2.45;;;17.00;99.90;;;;;;5048379;28;20033;-74
2022/08/16 06:53:05;;;;;;;4.82;2.95;;;17.00;99.90;;;;;;5048506;28;20029;-73
2022/08/16 06:55:33;;;;;;;4.43;2.55;;;17.10;99.90;;;;;;5033223;28;20083;-73
2022/08/16 06:57:59;;;;;;;3.65;2.58;;;17.10;99.90;;;;;;5048407;28;20486;-73
2022/08/16 07:00:26;;;;;;;5.80;3.03;;;17.10;99.90;;;;;;5032002;28;20033;-73
2022/08/16 07:02:52;;;;;;;3.67;2.80;;;17.10;99.90;;;;;;5051501;28;20568;-73
2022/08/16 07:05:19;;;;;;;4.90;3.00;;;17.10;99.90;;;;;;5052592;28;20116;-73
2022/08/16 07:07:47;;;;;;;4.38;3.20;;;17.10;99.90;;;;;;5037239;28;20060;-73
2022/08/16 07:10:15;;;;;;;4.93;3.42;;;17.20;99.90;;;;;;5036882;28;20025;-72
2022/08/16 07:12:41;;;;;;;5.03;2.90;;;17.30;99.90;;;;;;5036912;28;20074;-73
2022/08/16 07:15:08;;;;;;;4.78;3.22;;;17.40;99.90;;;;;;5052130;28;20033;-73
2022/08/16 07:17:35;;;;;;;4.25;3.40;;;17.40;99.90;;;;;;5035420;28;20022;-73
2022/08/16 07:20:02;;;;;;;4.53;3.60;;;17.50;99.90;;;;;;5035901;28;20048;-73
2022/08/16 07:22:28;;;;;;;4.90;3.20;;;17.60;99.90;;;;;;5036868;28;20032;-73
2022/08/16 07:24:53;;;;;;;5.32;3.13;;;17.70;99.90;;;;;;5035666;28;20025;-73
2022/08/16 07:27:19;;;;;;;4.55;3.60;;;17.70;99.90;;;;;;5036839;28;20053;-73
2022/08/16 07:29:45;;;;;;;6.68;3.60;;;17.90;99.90;;;;;;5035436;28;20036;-73
2022/08/16 07:32:11;;;;;;;5.78;4.32;;;17.90;99.90;;;;;;5036480;28;20029;-73
2022/08/16 07:34:36;;;;;;;7.10;4.80;;;18.00;99.90;;;;;;5036460;28;20041;-73
2022/08/16 07:37:08;;;;;;;8.18;5.30;;;18.10;99.90;;;;;;5035176;28;20025;-74
2022/08/16 07:39:34;;;;;;;6.07;4.60;;;18.20;99.90;;;;;;5051603;28;20025;-74
2022/08/16 07:41:59;;;;;;;7.45;5.68;;;18.30;99.90;;;;;;5036543;28;20107;-74
2022/08/16 07:44:26;;;;;;;7.65;5.53;;;18.40;99.90;;;;;;5036565;28;20032;-74
2022/08/16 07:46:51;;;;;;;7.43;5.30;;;18.50;99.90;;;;;;5051494;28;20067;-74
2022/08/16 07:49:18;;;;;;;10.07;5.70;;;18.60;99.90;;;;;;5034872;28;20025;-74
2022/08/16 07:51:43;;;;;;;6.63;5.32;;;18.60;99.90;;;;;;5051404;28;20075;-74
2022/08/16 07:54:10;;;;;;;7.93;5.07;;;18.70;99.90;;;;;;5051738;28;20121;-74
2022/08/16 07:56:37;;;;;;;5.60;4.25;;;18.80;99.90;;;;;;5051205;28;20037;-74
2022/08/16 07:59:03;;;;;;;7.05;5.60;;;18.90;99.90;;;;;;5035951;28;20034;-74
2022/08/16 08:01:30;;;;;;;8.38;4.70;;;19.00;99.90;;;;;;5034725;28;20022;-74
2022/08/16 08:03:57;;;;;;;6.53;5.07;;;19.10;99.90;;;;;;5035976;28;20017;-75
2022/08/16 08:06:27;;;;;;;7.40;4.60;;;19.20;99.90;;;;;;5035909;28;20448;-75
2022/08/16 08:08:53;;;;;;;7.20;5.00;;;19.30;99.90;;;;;;5051190;28;20025;-75
2022/08/16 08:11:21;;;;;;;10.27;4.82;;;19.40;99.90;;;;;;5034431;28;20116;-75
2022/08/16 08:13:47;;;;;;;6.95;4.72;;;19.40;99.90;;;;;;5034713;28;20027;-74
2022/08/16 08:16:13;;;;;;;5.85;4.85;;;19.40;99.90;;;;;;5036060;28;20091;-74
2022/08/16 08:18:39;;;;;;;5.43;4.05;;;19.50;99.90;;;;;;5036100;28;20029;-75
2022/08/16 08:21:06;;;;;;;5.22;4.18;;;19.60;99.90;;;;;;5035577;28;20018;-75
2022/08/16 08:23:35;;;;;;;5.60;4.20;;;19.60;99.90;;;;;;5050939;28;20029;-75
2022/08/16 08:26:00;;;;;;;5.88;4.35;;;19.70;99.90;;;;;;5034219;28;20029;-75
2022/08/16 08:28:26;;;;;;;7.07;4.20;;;19.90;99.90;;;;;;5035349;28;20109;-75
2022/08/16 08:30:52;;;;;;;5.80;3.85;;;20.00;99.90;;;;;;5035268;28;20482;-75
2022/08/16 08:33:17;;;;;;;6.95;4.32;;;20.10;99.90;;;;;;5034039;28;20464;-75
2022/08/16 08:35:44;;;;;;;5.43;3.40;;;20.20;99.90;;;;;;5035236;28;20087;-76
2022/08/16 08:38:09;;;;;;;4.32;3.35;;;20.30;99.90;;;;;;5035536;28;20029;-75
2022/08/16 08:40:35;;;;;;;4.10;3.47;;;20.40;99.90;;;;;;5050888;28;20087;-75
2022/08/16 08:43:01;;;;;;;4.75;3.35;;;20.50;99.90;;;;;;5034315;28;20056;-75
2022/08/16 08:45:29;;;;;;;4.32;3.30;;;20.50;99.90;;;;;;5034158;28;20390;-75
2022/08/16 08:47:55;;;;;;;4.50;3.08;;;20.60;99.90;;;;;;5035580;28;20037;-75
2022/08/16 08:50:22;;;;;;;5.70;3.15;;;20.70;99.90;;;;;;5050437;28;20029;-77
2022/08/16 08:52:50;;;;;;;4.28;3.13;;;20.80;99.90;;;;;;5050413;28;20036;-75
2022/08/16 08:55:17;;;;;;;3.78;2.85;;;20.90;99.90;;;;;;5035702;28;20049;-78
2022/08/16 08:57:46;;;;;;;3.45;2.63;;;20.90;99.90;;;;;;5034993;28;20527;-78
2022/08/16 09:00:13;;;;;;;5.00;3.22;;;20.90;99.90;;;;;;5033731;28;20477;-76
2022/08/16 09:02:42;;;;;;;4.95;3.13;;;20.90;99.90;;;;;;5035132;28;20529;-76
2022/08/16 09:05:08;;;;;;;3.72;3.03;;;21.00;99.90;;;;;;5035466;28;20450;-76
2022/08/16 09:07:33;;;;;;;4.32;3.53;;;21.20;99.90;;;;;;5034725;28;20033;-76
2022/08/16 09:09:59;;;;;;;3.85;3.05;;;21.30;99.90;;;;;;5033354;28;20501;-77
2022/08/16 09:12:26;;;;;;;4.20;2.97;;;21.40;99.90;;;;;;5034949;28;20033;-76
2022/08/16 09:14:52;;;;;;;3.83;3.00;;;21.40;99.30;;;;;;5033378;28;20103;-76
2022/08/16 09:17:17;;;;;;;4.45;3.38;;;21.50;99.80;;;;;;5034867;28;20458;-77
2022/08/16 09:19:43;;;;;;;4.10;3.67;;;21.60;99.70;;;;;;5033459;28;20029;-77
2022/08/16 09:22:09;;;;;;;4.50;3.08;;;21.70;99.80;;;;;;5034625;28;20103;-75
2022/08/16 09:24:35;;;;;;;4.25;3.45;;;21.80;98.90;;;;;;5033080;28;20028;-78
2022/08/16 09:27:01;;;;;;;5.00;3.47;;;21.80;99.20;;;;;;5033567;28;20477;-77
2022/08/16 09:29:27;;;;;;;4.10;3.25;;;22.00;99.90;;;;;;5033484;28;20029;-77
2022/08/16 09:31:55;;;;;;;3.80;2.90;;;22.00;98.10;;;;;;5034356;28;20473;-77
2022/08/16 09:34:21;;;;;;;4.65;3.60;;;22.10;99.00;;;;;;5049857;28;20044;-77
2022/08/16 09:36:47;;;;;;;4.38;3.10;;;22.10;99.40;;;;;;5034200;28;20025;-77
2022/08/16 09:39:14;;;;;;;6.63;3.40;;;22.20;98.60;;;;;;5032733;28;20367;-77
2022/08/16 09:41:40;;;;;;;4.30;2.58;;;22.20;98.20;;;;;;5047454;28;20030;-76
2022/08/16 09:44:06;;;;;;;3.25;2.80;;;22.20;96.90;;;;;;5032757;28;20091;-77
2022/08/16 09:46:32;;;;;;;3.65;2.58;;;22.30;97.40;;;;;;5032729;28;20481;-77
2022/08/16 09:48:58;;;;;;;4.80;2.70;;;22.50;97.30;;;;;;5033499;28;20080;-77
2022/08/16 09:51:25;;;;;;;4.43;2.60;;;22.70;96.90;;;;;;5045009;28;20029;-77
2022/08/16 09:53:54;;;;;;;4.05;2.90;;;22.90;97.40;;;;;;5032632;28;20447;-77
2022/08/16 09:56:29;;;;;;;4.18;2.47;;;23.10;97.00;;;;;;5045010;28;20044;-77
2022/08/16 09:58:56;;;;;;;5.07;2.80;;;23.30;96.20;;;;;;5053873;28;20029;-77
2022/08/16 10:01:23;;;;;;;5.03;2.50;;;23.40;95.00;;;;;;5051751;28;20025;-76
2022/08/16 10:03:50;;;;;;;3.03;2.20;;;23.50;95.40;;;;;;5046893;28;20014;-77
2022/08/16 10:06:17;;;;;;;3.30;2.33;;;23.50;94.80;;;;;;5032428;28;20470;-77
2022/08/16 10:08:42;;;;;;;4.97;2.28;;;23.70;94.70;;;;;;5033995;28;20037;-76
2022/08/16 10:13:52;;;;;;;4.70;2.28;;;23.90;94.40;;;;;;5031083;28;20086;-76
2022/08/16 10:16:18;;;;;;;4.53;2.50;;;24.00;93.60;;;;;;5032203;28;20452;-76
2022/08/16 10:18:44;;;;;;;2.65;1.85;;;24.10;91.90;;;;;;5032808;28;20031;-76
2022/08/16 10:21:10;;;;;;;4.05;2.20;;;24.20;90.90;;;;;;5032072;28;20437;-76
2022/08/16 10:23:35;;;;;;;3.20;2.22;;;24.30;91.00;;;;;;5033695;28;20374;-73
2022/08/16 10:26:01;;;;;;;2.78;2.00;;;24.30;90.70;;;;;;5032349;28;20022;-75
2022/08/16 10:28:29;;;;;;;3.70;2.05;;;24.40;90.00;;;;;;5033340;28;20033;-76
2022/08/16 10:30:56;;;;;;;2.42;1.58;;;24.40;90.10;;;;;;5032678;28;20476;-76
2022/08/16 10:33:21;;;;;;;2.05;1.35;;;24.50;88.50;;;;;;5032098;28;20033;-76
2022/08/16 10:35:47;;;;;;;2.45;1.60;;;24.70;85.30;;;;;;5032991;28;20032;-76
2022/08/16 10:38:13;;;;;;;2.05;1.50;;;24.80;84.70;;;;;;5039885;28;20025;-76
2022/08/16 10:40:40;;;;;;;3.47;1.80;;;24.80;86.30;;;;;;5039960;28;20028;-76
2022/08/16 10:43:06;;;;;;;2.30;1.52;;;24.90;84.90;;;;;;5038544;28;20026;-76
2022/08/16 10:45:32;;;;;;;2.17;1.30;;;24.90;87.20;;;;;;5038814;28;20079;-75
2022/08/16 10:47:59;;;;;;;2.40;1.40;;;25.00;82.50;;;;;;5038837;28;20055;-75
2022/08/16 10:50:26;;;;;;;1.80;1.35;;;25.10;82.50;;;;;;5039767;28;20029;-76
2022/08/16 10:52:52;;;;;;;2.35;1.50;;;25.20;83.60;;;;;;5038535;28;20021;-75
2022/08/16 10:55:20;;;;;;;2.70;1.40;;;25.20;83.10;;;;;;5039779;28;20030;-75
2022/08/16 10:57:47;;;;;;;3.67;1.42;;;25.40;80.60;;;;;;5038551;28;20040;-75
2022/08/16 11:00:15;;;;;;;3.97;1.52;;;25.40;78.20;;;;;;5039702;28;20455;-74
2022/08/16 11:02:42;;;;;;;2.20;1.10;;;25.50;72.40;;;;;;5039949;28;20029;-75
2022/08/16 11:05:11;;;;;;;3.63;1.15;;;25.60;72.90;;;;;;5040024;28;20014;-75
2022/08/16 11:07:47;;;;;;;2.22;1.08;;;25.60;70.80;;;;;;5040277;28;20080;-75
2022/08/16 11:10:16;;;;;;;2.25;1.17;;;25.80;70.00;;;;;;5038333;28;20524;-75
2022/08/16 11:12:42;;;;;;;1.58;1.00;;;25.90;69.00;;;;;;5038388;28;20049;-75
2022/08/16 11:15:08;;;;;;;2.67;1.23;;;25.90;66.30;;;;;;5039920;28;20033;-75
2022/08/16 11:17:34;;;;;;;;;;;26.00;66.80;;;;;;5040429;28;20079;-75
2022/08/16 11:20:00;;;;;;;;;;;26.10;62.90;;;;;;5038650;28;19909;-75
2022/08/16 11:22:25;;;;;;;;;;;26.20;66.00;;;;;;5038702;28;19911;-76
2022/08/16 11:24:51;;;;;;;;;;;26.30;64.60;;;;;;5055325;28;20272;-75
2022/08/16 11:27:18;;;;;;;;;;;26.40;64.90;;;;;;5040548;28;20357;-76
2022/08/16 11:29:43;;;;;;;;;;;26.50;65.80;;;;;;5039915;28;19905;-75
2022/08/16 11:32:09;;;;;;;;;;;26.50;65.70;;;;;;5055634;28;19988;-75
2022/08/16 11:34:35;;;;;;;;;;;26.50;63.80;;;;;;5039439;28;19909;-75
2022/08/16 11:37:01;;;;;;;;;;;26.40;61.70;;;;;;5055519;28;19948;-76
2022/08/16 11:39:27;;;;;;;;;;;26.50;62.50;;;;;;5040008;28;20370;-75
2022/08/16 11:41:53;;;;;;;;;;;26.60;62.90;;;;;;5039696;28;19942;-76
2022/08/16 11:44:19;;;;;;;;;;;26.70;63.20;;;;;;5039746;28;19909;-76
2022/08/16 11:46:44;;;;;;;;;;;26.80;63.30;;;;;;5055444;28;19948;-76
2022/08/16 11:49:10;;;;;;;;;;;26.90;62.40;;;;;;5036998;28;19987;-75
2022/08/16 11:51:35;;;;;;;;;;;26.90;62.20;;;;;;5035243;28;19955;-76
2022/08/16 11:54:01;;;;;;;;;;;27.00;65.20;;;;;;5052208;28;19974;-76
2022/08/16 11:56:26;;;;;;;;;;;27.10;63.10;;;;;;5051793;28;19912;-76
2022/08/16 11:58:52;;;;;;;;;;;27.20;62.50;;;;;;5051850;28;20003;-75
2022/08/16 12:01:18;;;;;;;;;;;27.30;60.80;;;;;;5036461;28;19944;-75
2022/08/16 12:03:44;;;;;;;;;;;27.30;57.70;;;;;;5035308;28;19912;-76
2022/08/16 12:06:14;;;;;;;;;;;27.20;58.00;;;;;;5036326;28;19909;-76
2022/08/16 12:08:41;;;;;;;;;;;27.30;59.80;;;;;;5035079;28;19911;-75
2022/08/16 12:11:07;;;;;;;;;;;27.50;58.90;;;;;;5036779;28;19928;-77
2022/08/16 12:13:33;;;;;;;;;;;27.60;59.80;;;;;;5034972;28;19996;-76
2022/08/16 12:15:58;;;;;;;;;;;27.70;56.60;;;;;;5034839;28;19912;-76
2022/08/16 12:18:24;;;;;;;;;;;27.70;55.70;;;;;;5036612;28;19943;-76
2022/08/16 12:20:50;;;;;;;;;;;27.70;54.90;;;;;;5035132;28;19913;-77
2022/08/16 12:23:15;;;;;;;;;;;27.70;55.50;;;;;;5034733;28;19905;-76
2022/08/16 12:25:41;;;;;;;;;;;27.80;54.80;;;;;;5051631;28;19943;-75
2022/08/16 12:28:07;;;;;;;;;;;27.90;54.80;;;;;;5051599;28;19904;-75
2022/08/16 12:30:35;;;;;;;;;;;28.00;56.50;;;;;;5036058;28;19927;-75
2022/08/16 12:33:02;;;;;;;;;;;28.20;53.80;;;;;;5034660;28;19915;-76
2022/08/16 12:35:28;;;;;;;;;;;28.20;56.10;;;;;;5034524;28;20365;-76
2022/08/16 12:37:55;;;;;;;;;;;28.20;57.90;;;;;;5034448;28;19909;-76
2022/08/16 12:40:22;;;;;;;;;;;28.30;57.30;;;;;;5034375;28;19955;-75
2022/08/16 12:42:49;;;;;;;;;;;28.40;51.50;;;;;;5034392;28;20285;-76
2022/08/16 12:45:16;;;;;;;;;;;28.30;56.00;;;;;;5034424;28;19928;-76
2022/08/16 12:50:26;;;;;;;;;;;28.30;49.80;;;;;;5035460;28;19960;-75
2022/08/16 12:52:51;;;;;;;;;;;28.40;51.70;;;;;;5034232;28;20357;-76
2022/08/16 12:55:17;;;;;;;;;;;28.50;52.40;;;;;;5034181;28;20356;-76
2022/08/16 12:57:43;;;;;;;;;;;28.50;50.50;;;;;;5035246;28;19917;-76
2022/08/16 13:00:12;;;;;;;;;;;28.60;48.90;;;;;;5033478;28;19931;-76